createdAt,value
2022-08-27T00:04:52.992Z,18.76
2022-08-27T00:09:58.846Z,18.68
2022-08-27T00:15:04.081Z,18.60
2022-08-27T00:20:10.416Z,18.53
2022-08-27T00:25:17.144Z,18.50
2022-08-27T00:30:25.059Z,18.55
2022-08-27T00:35:29.372Z,18.57
2022-08-27T00:40:36.156Z,18.60
2022-08-27T00:45:46.423Z,18.62
2022-08-27T00:50:55.380Z,18.62
2022-08-27T00:56:09.746Z,18.67
2022-08-27T01:01:19.761Z,18.59
2022-08-27T01:06:29.675Z,18.40
2022-08-27T01:11:35.759Z,18.35
2022-08-27T01:16:46.785Z,18.22
2022-08-27T01:22:03.233Z,18.14
2022-08-27T01:27:14.009Z,18.01
2022-08-27T01:32:25.456Z,17.88
2022-08-27T01:37:29.996Z,17.86
2022-08-27T01:42:38.911Z,17.82
2022-08-27T01:47:44.566Z,18.01
2022-08-27T01:52:49.372Z,18.15
2022-08-27T01:57:57.054Z,18.39
2022-08-27T02:03:02.371Z,18.55
2022-08-27T02:08:06.725Z,18.62
2022-08-27T02:13:13.392Z,18.71
2022-08-27T02:18:18.278Z,18.72
2022-08-27T02:23:23.116Z,18.75
2022-08-27T02:28:29.314Z,18.75
2022-08-27T02:33:34.078Z,18.74
2022-08-27T02:38:38.689Z,18.80
2022-08-27T02:43:46.824Z,18.92
2022-08-27T02:48:54.232Z,18.79
2022-08-27T02:54:02.055Z,18.75
2022-08-27T02:59:08.075Z,18.62
2022-08-27T03:04:12.804Z,18.54
2022-08-27T03:09:17.103Z,18.28
2022-08-27T03:14:22.945Z,18.00
2022-08-27T03:19:27.337Z,17.90
2022-08-27T03:24:32.230Z,17.98
2022-08-27T03:29:38.722Z,18.03
2022-08-27T03:34:43.264Z,18.24
2022-08-27T03:39:47.454Z,18.39
2022-08-27T03:44:53.235Z,18.49
2022-08-27T03:49:57.622Z,18.51
2022-08-27T03:55:02.055Z,18.59
2022-08-27T04:00:12.729Z,18.55
2022-08-27T04:05:17.145Z,18.47
2022-08-27T04:10:22.137Z,18.42
2022-08-27T04:15:27.939Z,18.49
2022-08-27T04:20:35.357Z,18.50
2022-08-27T04:25:41.252Z,18.62
2022-08-27T04:30:48.251Z,18.62
2022-08-27T04:35:59.906Z,18.62
2022-08-27T04:41:21.362Z,18.62
2022-08-27T04:46:29.940Z,18.62
2022-08-27T04:51:34.854Z,18.53
2022-08-27T04:56:40.344Z,18.58
2022-08-27T05:01:46.162Z,18.64
2022-08-27T05:06:50.699Z,18.67
2022-08-27T05:11:58.874Z,18.72
2022-08-27T05:17:04.721Z,18.69
2022-08-27T05:22:09.136Z,18.76
2022-08-27T05:27:13.780Z,18.78
2022-08-27T05:32:19.446Z,18.80
2022-08-27T05:37:23.794Z,18.93
2022-08-27T05:42:30.080Z,18.97
2022-08-27T05:47:37.503Z,18.95
2022-08-27T05:52:48.836Z,18.95
2022-08-27T05:57:53.298Z,19.05
2022-08-27T06:02:59.552Z,19.17
2022-08-27T06:08:04.435Z,19.30
2022-08-27T06:13:08.687Z,19.54
2022-08-27T06:18:14.869Z,19.88
2022-08-27T06:23:19.213Z,20.25
2022-08-27T06:28:32.791Z,20.47
2022-08-27T06:33:39.630Z,20.57
2022-08-27T06:38:44.145Z,20.91
2022-08-27T06:43:49.148Z,20.90
2022-08-27T06:49:01.245Z,20.98
2022-08-27T06:54:08.961Z,20.69
2022-08-27T06:59:16.780Z,20.49
2022-08-27T07:04:32.623Z,20.46
2022-08-27T07:09:37.349Z,20.59
2022-08-27T07:14:43.784Z,20.58
2022-08-27T07:19:49.844Z,20.69
2022-08-27T07:24:54.259Z,20.79
2022-08-27T07:29:59.984Z,21.10
2022-08-27T07:35:09.812Z,21.28
2022-08-27T07:40:17.174Z,21.48
2022-08-27T07:45:22.099Z,21.39
2022-08-27T07:50:28.048Z,21.11
2022-08-27T07:55:32.425Z,20.95
2022-08-27T08:00:37.112Z,20.77
2022-08-27T08:05:45.237Z,20.69
2022-08-27T08:10:49.957Z,20.71
2022-08-27T08:15:54.241Z,20.81
2022-08-27T08:21:03.494Z,21.20
2022-08-27T08:26:09.743Z,22.39
2022-08-27T08:31:14.286Z,23.53
2022-08-27T08:36:20.768Z,24.34
2022-08-27T08:41:41.387Z,26.81
2022-08-27T08:46:55.296Z,27.00
2022-08-27T08:52:26.929Z,28.41
2022-08-27T08:57:44.860Z,27.90
2022-08-27T09:02:55.790Z,26.88
2022-08-27T09:08:32.326Z,28.55
2022-08-27T09:13:44.704Z,31.83
2022-08-27T09:18:52.334Z,33.63
2022-08-27T09:24:09.490Z,33.00
2022-08-27T09:29:20.048Z,33.40
2022-08-27T09:34:27.266Z,34.60
2022-08-27T09:39:45.835Z,34.26
2022-08-27T09:44:53.553Z,32.90
2022-08-27T09:50:53.586Z,32.77
2022-08-27T09:56:23.208Z,32.94
2022-08-27T10:01:32.363Z,32.95
2022-08-27T10:06:38.481Z,32.90
2022-08-27T10:12:08.154Z,34.17
2022-08-27T10:18:37.065Z,36.95
2022-08-27T10:24:31.527Z,39.42
2022-08-27T10:30:38.729Z,38.41
2022-08-27T10:37:17.171Z,40.16
2022-08-27T10:43:12.234Z,42.31
2022-08-27T10:48:47.241Z,41.92
2022-08-27T11:01:45.563Z,41.40
2022-08-27T11:29:15.051Z,44.37
2022-08-27T11:35:51.431Z,43.95
2022-08-27T11:43:15.593Z,43.65
2022-08-27T12:12:14.385Z,46.65
2022-08-27T12:18:09.676Z,46.96
2022-08-27T12:23:40.948Z,46.28
2022-08-27T12:28:48.350Z,47.42
2022-08-27T12:33:55.674Z,46.45
2022-08-27T12:39:03.672Z,46.75
2022-08-27T12:44:13.155Z,44.36
2022-08-27T12:49:39.097Z,45.07
2022-08-27T12:55:00.298Z,44.54
2022-08-27T13:00:14.458Z,46.45
2022-08-27T13:05:28.588Z,47.52
2022-08-27T13:10:37.929Z,47.54
2022-08-27T13:23:40.660Z,47.32
2022-08-27T13:29:30.192Z,42.15
2022-08-27T13:34:54.576Z,39.12
2022-08-27T13:40:00.336Z,38.06
2022-08-27T13:45:07.815Z,36.53
2022-08-27T13:50:22.658Z,34.96
2022-08-27T13:55:33.642Z,34.68
2022-08-27T14:00:38.548Z,39.09
2022-08-27T14:06:11.986Z,37.31
2022-08-27T14:11:29.378Z,33.99
2022-08-27T14:16:36.877Z,32.83
2022-08-27T14:21:43.731Z,31.54
2022-08-27T14:26:53.576Z,33.50
2022-08-27T14:31:57.943Z,34.66
2022-08-27T14:37:03.872Z,34.74
2022-08-27T14:42:10.361Z,35.80
2022-08-27T14:47:17.247Z,32.90
2022-08-27T14:52:24.828Z,30.55
2022-08-27T14:57:30.647Z,29.29
2022-08-27T15:02:36.396Z,28.12
2022-08-27T15:07:40.981Z,27.76
2022-08-27T15:12:55.171Z,27.79
2022-08-27T15:18:03.600Z,27.08
2022-08-27T15:23:08.048Z,26.52
2022-08-27T15:28:14.423Z,26.19
2022-08-27T15:33:20.911Z,25.89
2022-08-27T15:38:25.278Z,25.28
2022-08-27T15:43:31.436Z,24.71
2022-08-27T15:48:36.280Z,24.09
2022-08-27T15:53:43.839Z,24.20
2022-08-27T15:58:49.748Z,24.35
2022-08-27T16:03:55.075Z,24.10
2022-08-27T16:08:59.540Z,23.14
2022-08-27T16:14:05.582Z,22.40
2022-08-27T16:19:13.640Z,22.26
2022-08-27T16:24:22.950Z,22.14
2022-08-27T16:29:28.543Z,22.17
2022-08-27T16:34:33.203Z,22.46
2022-08-27T16:39:40.656Z,22.85
2022-08-27T16:44:46.626Z,23.30
2022-08-27T16:50:08.156Z,23.92
2022-08-27T16:55:12.476Z,24.73
2022-08-27T17:00:19.208Z,25.02
2022-08-27T17:05:34.097Z,25.00
2022-08-27T17:10:46.328Z,25.36
2022-08-27T17:15:53.175Z,25.32
2022-08-27T17:21:00.644Z,25.23
2022-08-27T17:26:09.216Z,24.86
2022-08-27T17:31:27.944Z,24.58
2022-08-27T17:36:33.603Z,24.22
2022-08-27T17:41:42.899Z,23.78
2022-08-27T17:46:49.426Z,23.57
2022-08-27T17:52:00.882Z,23.19
2022-08-27T17:57:14.877Z,22.92
2022-08-27T18:02:25.580Z,22.65
2022-08-27T18:07:30.063Z,22.40
2022-08-27T18:12:35.053Z,22.13
2022-08-27T18:17:42.539Z,21.98
2022-08-27T18:22:49.107Z,21.74
2022-08-27T18:27:58.038Z,21.51
2022-08-27T18:33:03.887Z,21.37
2022-08-27T18:38:08.313Z,21.25
2022-08-27T18:43:14.384Z,21.11
2022-08-27T18:48:23.240Z,21.15
2022-08-27T18:53:30.951Z,21.21
2022-08-27T18:58:38.490Z,21.00
2022-08-27T19:03:48.679Z,20.79
2022-08-27T19:08:54.146Z,20.53
2022-08-27T19:13:59.141Z,20.30
2022-08-27T19:19:08.030Z,20.16
2022-08-27T19:24:12.681Z,20.08
2022-08-27T19:29:17.994Z,20.08
2022-08-27T19:34:25.621Z,20.07
2022-08-27T19:39:30.390Z,19.98
2022-08-27T19:44:36.053Z,19.85
2022-08-27T19:49:44.901Z,19.79
2022-08-27T19:55:10.203Z,19.65
2022-08-27T20:00:18.985Z,19.58
2022-08-27T20:05:25.038Z,19.48
2022-08-27T20:10:36.879Z,19.38
2022-08-27T20:15:42.095Z,19.35
2022-08-27T20:20:49.930Z,19.34
2022-08-27T20:25:57.837Z,19.34
2022-08-27T20:31:05.187Z,19.34
2022-08-27T20:36:12.996Z,19.25
2022-08-27T20:41:17.274Z,19.21
2022-08-27T20:46:25.730Z,19.19
2022-08-27T20:51:31.883Z,19.14
2022-08-27T20:56:56.412Z,19.03
2022-08-27T21:02:07.016Z,18.97
2022-08-27T21:07:12.910Z,18.75
2022-08-27T21:12:22.824Z,18.74
2022-08-27T21:17:29.588Z,18.59
2022-08-27T21:22:36.668Z,18.52
2022-08-27T21:27:42.512Z,18.52
2022-08-27T21:32:46.916Z,18.50
2022-08-27T21:37:52.726Z,18.44
2022-08-27T21:42:58.516Z,18.39
2022-08-27T21:48:03.328Z,18.26
2022-08-27T21:53:09.609Z,18.19
2022-08-27T21:58:15.678Z,18.14
2022-08-27T22:03:23.196Z,18.16
2022-08-27T22:08:28.946Z,18.12
2022-08-27T22:13:34.750Z,17.99
2022-08-27T22:18:39.176Z,17.79
2022-08-27T22:23:46.145Z,17.69
2022-08-27T22:28:50.714Z,17.62
2022-08-27T22:33:55.060Z,17.67
2022-08-27T22:39:03.485Z,17.62
2022-08-27T22:44:08.466Z,17.51
2022-08-27T22:49:12.927Z,17.47
2022-08-27T22:54:20.790Z,17.44
2022-08-27T22:59:25.479Z,17.48
2022-08-27T23:04:51.319Z,17.45
2022-08-27T23:09:56.902Z,17.40
2022-08-27T23:15:01.282Z,17.27
2022-08-27T23:20:08.374Z,17.26
2022-08-27T23:25:32.701Z,17.25
2022-08-27T23:30:37.878Z,17.23
2022-08-27T23:35:47.571Z,17.20
2022-08-27T23:40:53.480Z,17.16
2022-08-27T23:45:57.847Z,17.08
2022-08-27T23:51:02.876Z,17.04
2022-08-27T23:56:09.182Z,16.91
